Time;durP1;ratioP1;P1;durP2;ratioP2;P2;SDS_P1;SDS_P2;PMS_P1;PMS_P2;Temp;Humidity;BMP_temperature;BMP_pressure;BME280_temperature;BME280_humidity;BME280_pressure;Samples;Min_cycle;Max_cycle;Signal;HPM_P1;HPM_P2
2023/04/06 00:01:25;;;;;;;7.15;6.13;;;;;;;17.50;51.82;99663.94;4974073;28;20023;-64
2023/04/06 00:03:51;;;;;;;7.43;6.63;;;;;;;17.51;52.04;99657.75;4974560;28;20022;-64
2023/04/06 00:06:16;;;;;;;6.60;5.70;;;;;;;17.50;51.57;99655.16;4974726;28;20041;-64
2023/04/06 00:08:42;;;;;;;7.15;5.65;;;;;;;17.48;52.03;99649.09;4974539;28;20437;-64
2023/04/06 00:11:08;;;;;;;6.55;5.85;;;;;;;17.48;52.05;99643.84;4974449;28;20031;-64
2023/04/06 00:13:34;;;;;;;7.45;5.68;;;;;;;17.47;51.86;99652.69;4974153;28;20090;-63
2023/04/06 00:15:59;;;;;;;7.25;5.63;;;;;;;17.45;51.90;99643.03;4974473;28;20031;-64
2023/04/06 00:18:25;;;;;;;5.90;5.30;;;;;;;17.44;52.08;99640.47;4974421;28;20038;-64
2023/04/06 00:20:50;;;;;;;7.85;5.43;;;;;;;17.43;51.81;99639.59;4974138;28;20121;-64
2023/04/06 00:23:16;;;;;;;6.32;5.47;;;;;;;17.43;51.79;99639.59;4974151;28;20027;-63
2023/04/06 00:25:42;;;;;;;6.32;5.65;;;;;;;17.43;52.04;99641.38;4972935;28;20030;-64
2023/04/06 00:28:07;;;;;;;5.88;4.97;;;;;;;17.42;52.01;99640.53;4973809;28;20027;-64
2023/04/06 00:30:33;;;;;;;6.68;5.38;;;;;;;17.42;51.97;99640.53;4974089;28;20073;-64
2023/04/06 00:32:58;;;;;;;6.65;5.75;;;;;;;17.42;51.65;99635.25;4973974;28;20102;-64
2023/04/06 00:35:23;;;;;;;5.88;5.28;;;;;;;17.42;51.71;99629.97;4974029;28;20034;-64
2023/04/06 00:37:49;;;;;;;6.50;5.38;;;;;;;17.42;52.02;99623.84;4973858;28;20026;-63
2023/04/06 00:40:15;;;;;;;7.28;5.20;;;;;;;17.40;51.94;99621.28;4992100;28;20130;-64
2023/04/06 00:42:41;;;;;;;6.85;5.57;;;;;;;17.37;51.87;99623.16;4988136;28;20054;-63
2023/04/06 00:45:07;;;;;;;7.22;5.18;;;;;;;17.36;51.83;99624.09;4977758;28;20511;-64
2023/04/06 00:47:33;;;;;;;6.72;5.38;;;;;;;17.34;51.75;99618.88;4973017;28;20031;-63
2023/04/06 00:49:59;;;;;;;6.43;5.40;;;;;;;17.35;51.90;99612.72;4973665;28;20037;-63
2023/04/06 00:52:25;;;;;;;6.78;5.05;;;;;;;17.36;52.00;99618.81;4973682;28;20445;-64
2023/04/06 00:54:50;;;;;;;6.00;5.18;;;;;;;17.35;51.90;99622.41;4973510;28;20122;-64
2023/04/06 00:57:17;;;;;;;6.20;5.15;;;;;;;17.35;51.73;99612.72;4973177;28;20043;-63
2023/04/06 00:59:43;;;;;;;7.75;5.13;;;;;;;17.35;51.78;99614.47;4973444;28;20057;-64
2023/04/06 01:02:09;;;;;;;6.90;4.82;;;;;;;17.31;51.84;99605.84;4973782;28;20037;-64
2023/04/06 01:04:34;;;;;;;6.72;4.88;;;;;;;17.33;51.71;99611.91;4973562;28;20027;-63
2023/04/06 01:07:00;;;;;;;6.72;5.38;;;;;;;17.31;51.82;99616.41;4973482;28;20053;-64
2023/04/06 01:09:29;;;;;;;6.68;5.18;;;;;;;17.30;51.84;99612.88;4973375;28;20030;-63
2023/04/06 01:11:55;;;;;;;6.13;4.47;;;;;;;17.31;51.75;99616.41;4973078;28;20507;-63
2023/04/06 01:14:21;;;;;;;5.10;4.50;;;;;;;17.30;51.76;99617.31;4972872;28;20038;-63
2023/04/06 01:16:47;;;;;;;6.68;5.00;;;;;;;17.28;52.04;99621.78;4973433;28;20081;-64
2023/04/06 01:19:13;;;;;;;5.97;4.85;;;;;;;17.28;52.00;99627.06;4989532;28;20053;-63
2023/04/06 01:21:40;;;;;;;6.18;4.93;;;;;;;17.27;51.73;99620.09;4975205;28;20129;-64
2023/04/06 01:24:07;;;;;;;6.15;4.80;;;;;;;17.27;52.13;99617.44;4992609;28;20129;-65
2023/04/06 01:26:33;;;;;;;6.30;4.82;;;;;;;17.25;51.73;99621.94;4991924;28;20113;-64
2023/04/06 01:28:59;;;;;;;6.07;4.57;;;;;;;17.24;52.09;99621.06;4992597;28;20038;-64
2023/04/06 01:31:26;;;;;;;5.90;4.60;;;;;;;17.23;51.92;99619.34;4992721;28;20106;-64
2023/04/06 01:33:52;;;;;;;6.35;4.47;;;;;;;17.24;52.03;99617.59;4992534;28;20026;-64
2023/04/06 01:36:18;;;;;;;8.45;4.68;;;;;;;17.22;52.01;99616.78;4992420;28;20056;-64
2023/04/06 01:38:43;;;;;;;6.07;5.10;;;;;;;17.21;52.12;99615.06;4992448;28;20050;-64
2023/04/06 01:41:09;;;;;;;6.18;4.25;;;;;;;17.21;52.05;99607.16;4992138;28;20030;-64
2023/04/06 01:43:35;;;;;;;5.55;4.50;;;;;;;17.20;52.09;99613.34;4980532;28;20489;-63
2023/04/06 01:46:00;;;;;;;4.97;4.25;;;;;;;17.17;51.82;99604.66;4972877;28;20019;-64
2023/04/06 01:48:29;;;;;;;7.10;5.10;;;;;;;17.16;51.91;99602.94;4973088;28;20484;-64
2023/04/06 01:50:55;;;;;;;5.95;4.30;;;;;;;17.20;51.80;99608.09;4973043;28;20030;-64
2023/04/06 01:53:21;;;;;;;5.55;4.70;;;;;;;17.17;51.76;99599.41;4974596;28;20113;-64
2023/04/06 01:55:46;;;;;;;6.10;4.88;;;;;;;17.18;51.72;99601.09;4991902;28;20199;-64
2023/04/06 01:58:13;;;;;;;5.63;4.10;;;;;;;17.18;51.82;99595.84;4992281;28;20030;-64
2023/04/06 02:00:38;;;;;;;5.90;4.10;;;;;;;17.17;51.83;99601.16;4996331;28;20069;-63
2023/04/06 02:03:04;;;;;;;5.85;4.30;;;;;;;17.15;51.87;99595.94;4996254;28;20381;-64
2023/04/06 02:05:31;;;;;;;5.57;4.10;;;;;;;17.15;51.98;99593.31;4996238;28;20563;-64
2023/04/06 02:07:57;;;;;;;5.25;4.07;;;;;;;17.14;51.99;99588.97;4995821;28;20034;-64
2023/04/06 02:10:23;;;;;;;5.70;4.30;;;;;;;17.12;51.75;99588.19;4995881;28;20031;-64
2023/04/06 02:12:49;;;;;;;5.00;4.20;;;;;;;17.12;51.81;99585.53;4995900;28;20472;-63
2023/04/06 02:15:15;;;;;;;4.90;4.00;;;;;;;17.10;51.91;99582.09;4995825;28;20037;-64
2023/04/06 02:17:41;;;;;;;5.88;4.00;;;;;;;17.10;51.87;99583.91;4995858;28;20034;-64
2023/04/06 02:20:07;;;;;;;4.70;3.97;;;;;;;17.09;51.89;99580.38;4984772;28;20042;-63
2023/04/06 02:22:34;;;;;;;5.28;4.00;;;;;;;17.10;52.03;99586.53;4981281;28;20041;-63
2023/04/06 02:24:59;;;;;;;6.28;4.00;;;;;;;17.06;51.90;99585.81;4976030;28;20019;-64
2023/04/06 02:27:25;;;;;;;5.22;3.67;;;;;;;17.09;51.77;99590.94;4959032;28;20035;-64
2023/04/06 02:29:50;;;;;;;6.22;3.95;;;;;;;17.07;51.79;99579.59;4976263;28;20030;-64
2023/04/06 02:32:16;;;;;;;5.13;4.03;;;;;;;17.07;51.79;99582.25;4976318;28;20037;-63
2023/04/06 02:34:41;;;;;;;4.95;3.92;;;;;;;17.07;51.84;99576.09;4994825;28;20563;-63
2023/04/06 02:37:07;;;;;;;4.53;3.58;;;;;;;17.04;51.75;99579.72;4986465;28;20027;-63
2023/04/06 02:39:32;;;;;;;6.10;4.20;;;;;;;17.06;51.65;99577.03;4975741;28;20051;-64
2023/04/06 02:41:57;;;;;;;5.15;3.85;;;;;;;17.03;51.63;99575.38;4976208;28;20038;-64
2023/04/06 02:44:23;;;;;;;4.82;3.67;;;;;;;17.00;51.92;99570.22;4976082;28;20022;-64
2023/04/06 02:46:48;;;;;;;5.32;3.70;;;;;;;17.01;51.60;99579.84;4975930;28;20031;-64
2023/04/06 02:49:14;;;;;;;4.90;3.35;;;;;;;17.00;51.83;99580.78;4975799;28;20038;-64
2023/04/06 02:51:39;;;;;;;4.80;3.70;;;;;;;16.97;51.66;99578.25;4975983;28;20022;-64
2023/04/06 02:54:05;;;;;;;4.63;3.90;;;;;;;16.97;51.97;99586.16;4975600;28;20027;-64
2023/04/06 02:56:30;;;;;;;5.00;3.63;;;;;;;16.97;51.87;99587.03;4975879;28;20485;-64
2023/04/06 02:58:56;;;;;;;5.45;3.78;;;;;;;16.96;51.73;99595.84;4975899;28;20022;-64
2023/04/06 03:01:21;;;;;;;5.00;3.60;;;;;;;16.97;51.72;99586.16;4975588;28;20030;-64
2023/04/06 03:03:47;;;;;;;4.32;3.35;;;;;;;16.97;51.76;99591.44;4975616;28;20027;-64
2023/04/06 03:06:12;;;;;;;5.85;3.83;;;;;;;16.96;51.73;99579.16;4975575;28;20027;-64
2023/04/06 03:08:37;;;;;;;4.75;3.40;;;;;;;16.95;51.68;99580.09;4975445;28;20041;-63
2023/04/06 03:11:03;;;;;;;5.25;3.80;;;;;;;16.96;51.65;99580.03;4974438;28;20482;-64
2023/04/06 03:13:28;;;;;;;4.88;3.65;;;;;;;16.94;51.82;99576.59;4975594;28;20030;-64
2023/04/06 03:15:54;;;;;;;4.68;3.35;;;;;;;16.93;51.76;99585.44;4975404;28;20061;-64
2023/04/06 03:18:24;;;;;;;5.07;3.53;;;;;;;16.90;51.82;99573.22;4975339;28;20042;-64
2023/04/06 03:20:50;;;;;;;5.97;3.20;;;;;;;16.91;51.67;99577.59;4975458;28;20023;-63
2023/04/06 03:23:15;;;;;;;4.45;3.47;;;;;;;16.91;51.75;99582.84;4975157;28;20393;-64
2023/04/06 03:25:41;;;;;;;4.70;3.10;;;;;;;16.89;51.99;99579.44;4974056;28;20432;-64
2023/04/06 03:28:06;;;;;;;5.15;3.53;;;;;;;16.87;52.03;99581.28;4975444;28;20074;-64
2023/04/06 03:30:32;;;;;;;5.28;3.70;;;;;;;16.88;51.84;99577.72;4975131;28;20034;-64
2023/04/06 03:32:57;;;;;;;4.75;3.25;;;;;;;16.88;51.82;99582.13;4975425;28;20105;-64
2023/04/06 03:35:22;;;;;;;4.63;3.30;;;;;;;16.88;51.86;99583.00;4975290;28;20035;-64
2023/04/06 03:37:48;;;;;;;5.00;3.40;;;;;;;16.90;52.06;99569.72;4974812;28;20389;-63
2023/04/06 03:40:13;;;;;;;4.40;3.05;;;;;;;16.88;52.10;99569.81;4973755;28;20709;-64
2023/04/06 03:42:39;;;;;;;4.30;3.00;;;;;;;16.85;52.17;99566.47;4975001;28;20026;-66
2023/04/06 03:45:05;;;;;;;4.82;3.70;;;;;;;16.85;51.90;99562.03;4957608;28;20757;-64
2023/04/06 03:47:30;;;;;;;4.40;3.42;;;;;;;16.83;51.89;99563.88;4974925;28;20041;-64
2023/04/06 03:49:56;;;;;;;4.85;3.10;;;;;;;16.83;51.95;99558.59;4975032;28;20035;-64
2023/04/06 03:52:22;;;;;;;4.03;3.08;;;;;;;16.83;51.95;99573.56;4974549;28;20340;-64
2023/04/06 03:54:48;;;;;;;4.28;2.95;;;;;;;16.81;51.74;99575.41;4975558;28;20118;-63
2023/04/06 03:57:14;;;;;;;4.30;2.85;;;;;;;16.80;51.76;99574.53;4975432;28;20109;-65
2023/04/06 03:59:40;;;;;;;4.68;2.92;;;;;;;16.80;51.62;99577.16;4975416;28;20039;-64
2023/04/06 04:02:05;;;;;;;4.45;2.85;;;;;;;16.79;52.07;99572.81;4975206;28;20027;-64
2023/04/06 04:04:31;;;;;;;4.25;3.03;;;;;;;16.79;51.74;99575.47;4973988;28;20031;-64
2023/04/06 04:06:56;;;;;;;4.30;3.05;;;;;;;16.76;51.77;99571.16;4974296;28;20086;-64
2023/04/06 04:09:21;;;;;;;5.18;2.88;;;;;;;16.78;52.02;99579.03;4974778;28;20053;-64
2023/04/06 04:11:47;;;;;;;4.10;3.13;;;;;;;16.74;51.91;99574.78;4974431;28;20405;-64
2023/04/06 04:14:12;;;;;;;4.35;3.15;;;;;;;16.74;52.06;99569.53;4974602;28;20035;-63
2023/04/06 04:16:39;;;;;;;3.63;2.83;;;;;;;16.76;51.88;99578.25;4974394;28;20050;-63
2023/04/06 04:19:05;;;;;;;4.50;3.15;;;;;;;16.75;52.06;99587.03;4974425;28;20027;-64
2023/04/06 04:21:31;;;;;;;4.70;3.15;;;;;;;16.73;51.72;99584.50;4973726;28;20113;-63
2023/04/06 04:23:56;;;;;;;5.10;3.17;;;;;;;16.73;51.95;99579.22;4974318;28;20042;-65
2023/04/06 04:26:22;;;;;;;4.82;3.53;;;;;;;16.71;52.04;99585.47;4974389;28;20049;-64
2023/04/06 04:28:47;;;;;;;4.28;2.80;;;;;;;16.73;51.86;99581.00;4974008;28;20027;-64
2023/04/06 04:31:13;;;;;;;3.75;2.72;;;;;;;16.72;51.98;99579.28;4974154;28;20096;-64
2023/04/06 04:33:38;;;;;;;4.43;2.85;;;;;;;16.71;51.96;99585.47;4974152;28;20015;-64
2023/04/06 04:36:04;;;;;;;4.28;3.00;;;;;;;16.68;51.88;99580.31;4973624;28;20117;-63
2023/04/06 04:38:29;;;;;;;4.55;2.78;;;;;;;16.69;51.78;99576.75;4973805;28;20046;-64
2023/04/06 04:40:55;;;;;;;4.57;3.08;;;;;;;16.67;52.04;99576.84;4973861;28;20027;-64
2023/04/06 04:43:20;;;;;;;3.58;2.72;;;;;;;16.65;51.57;99576.03;4973699;28;20029;-63
2023/04/06 04:45:46;;;;;;;4.13;2.45;;;;;;;16.66;51.76;99576.91;4973846;28;20039;-64
2023/04/06 04:48:11;;;;;;;4.72;3.00;;;;;;;16.67;51.79;99583.88;4973782;28;20370;-63
2023/04/06 04:50:37;;;;;;;4.88;3.13;;;;;;;16.67;51.92;99578.59;4973692;28;20041;-64
2023/04/06 04:53:05;;;;;;;4.70;2.75;;;;;;;16.66;51.84;99585.63;4972309;28;20022;-64
2023/04/06 04:55:30;;;;;;;4.05;2.90;;;;;;;16.70;51.81;99584.59;4973486;28;20023;-64
2023/04/06 04:57:56;;;;;;;3.95;2.53;;;;;;;16.70;51.87;99586.41;4973450;28;20035;-64
2023/04/06 05:00:21;;;;;;;3.80;2.58;;;;;;;16.69;51.68;99582.03;4973652;28;20397;-63
2023/04/06 05:02:47;;;;;;;3.85;2.60;;;;;;;16.73;51.73;99588.88;4973345;28;20027;-63
2023/04/06 05:05:12;;;;;;;4.63;3.10;;;;;;;16.72;51.69;99590.69;4972900;28;20023;-64
2023/04/06 05:07:38;;;;;;;4.25;2.92;;;;;;;16.74;51.49;99585.31;4973193;28;20022;-64
2023/04/06 05:10:03;;;;;;;4.38;2.80;;;;;;;16.74;51.43;99586.19;4973252;28;20065;-63
2023/04/06 05:12:29;;;;;;;4.50;2.88;;;;;;;16.74;51.75;99585.31;4973349;28;20062;-64
2023/04/06 05:14:54;;;;;;;3.78;2.78;;;;;;;16.78;51.43;99592.19;4973280;28;20473;-64
2023/04/06 05:17:20;;;;;;;5.10;3.13;;;;;;;16.76;51.42;99599.31;4973293;28;20030;-63
2023/04/06 05:19:46;;;;;;;5.22;2.80;;;;;;;16.77;51.75;99598.41;4972932;28;20131;-64
2023/04/06 05:22:13;;;;;;;5.65;3.42;;;;;;;16.81;51.81;99605.25;4973422;28;20449;-64
2023/04/06 05:24:40;;;;;;;5.07;3.22;;;;;;;16.79;51.61;99604.44;4973137;28;20046;-64
2023/04/06 05:27:05;;;;;;;5.80;3.22;;;;;;;16.79;51.52;99604.44;4973375;28;20023;-64
2023/04/06 05:29:31;;;;;;;4.85;2.88;;;;;;;16.81;51.68;99607.91;4973251;28;20030;-64
2023/04/06 05:31:56;;;;;;;5.25;2.53;;;;;;;16.80;51.41;99611.44;4977947;28;20030;-64
2023/04/06 05:34:22;;;;;;;4.03;2.65;;;;;;;16.80;51.59;99608.78;4980859;28;20399;-64
2023/04/06 05:36:47;;;;;;;4.40;2.90;;;;;;;16.81;51.59;99607.91;4983341;28;20042;-64
2023/04/06 05:39:13;;;;;;;5.93;3.03;;;;;;;16.79;51.64;99612.34;4989868;28;20516;-63
2023/04/06 05:41:38;;;;;;;4.53;2.90;;;;;;;16.81;51.62;99609.66;4992328;28;20053;-64
2023/04/06 05:44:04;;;;;;;3.95;2.47;;;;;;;16.78;51.57;99611.50;4976365;28;20026;-63
2023/04/06 05:46:29;;;;;;;3.58;2.50;;;;;;;16.77;51.72;99616.84;4973238;28;20077;-63
2023/04/06 05:48:55;;;;;;;4.78;2.75;;;;;;;16.78;51.93;99631.72;4972108;28;20029;-64
2023/04/06 05:51:20;;;;;;;4.70;2.85;;;;;;;16.81;51.45;99633.38;4973113;28;20023;-64
2023/04/06 05:53:46;;;;;;;5.43;2.78;;;;;;;16.78;51.69;99639.63;4973083;28;20050;-64
2023/04/06 05:56:11;;;;;;;3.70;2.50;;;;;;;16.78;51.75;99639.63;4973221;28;20381;-63
2023/04/06 05:58:37;;;;;;;6.30;2.53;;;;;;;16.79;51.60;99638.72;4972803;28;20066;-64
2023/04/06 06:01:03;;;;;;;3.30;2.33;;;;;;;16.80;51.80;99642.22;4972763;28;20397;-63
2023/04/06 06:03:29;;;;;;;4.20;2.53;;;;;;;16.78;51.86;99639.63;4955182;28;20054;-63
2023/04/06 06:06:00;;;;;;;5.25;2.90;;;;;;;16.79;51.93;99651.88;4972705;28;20027;-63
2023/04/06 06:08:26;;;;;;;3.90;2.38;;;;;;;16.75;51.63;99642.38;4972773;28;20030;-64
2023/04/06 06:10:51;;;;;;;5.00;2.70;;;;;;;16.78;51.75;99650.19;4972993;28;20027;-63
2023/04/06 06:13:17;;;;;;;4.20;2.30;;;;;;;16.76;51.78;99658.13;4972647;28;20031;-64
2023/04/06 06:15:42;;;;;;;3.58;2.30;;;;;;;16.77;51.84;99665.13;4972779;28;20084;-63
2023/04/06 06:18:08;;;;;;;3.42;2.20;;;;;;;16.76;52.01;99665.19;4972711;28;20397;-64
2023/04/06 06:20:33;;;;;;;2.88;2.20;;;;;;;16.76;51.55;99667.84;4972666;28;20034;-63
2023/04/06 06:22:58;;;;;;;3.80;2.53;;;;;;;16.73;51.40;99663.53;4973066;28;20023;-63
2023/04/06 06:25:24;;;;;;;5.38;2.50;;;;;;;16.72;51.59;99667.09;4972790;28;20034;-63
2023/04/06 06:27:50;;;;;;;4.63;2.55;;;;;;;16.73;51.79;99678.47;4972678;28;20465;-64
2023/04/06 06:30:15;;;;;;;4.28;2.22;;;;;;;16.71;51.41;99677.69;4972776;28;20038;-63
2023/04/06 06:32:41;;;;;;;3.83;2.60;;;;;;;16.69;51.83;99688.28;4972533;28;20086;-64
2023/04/06 06:35:06;;;;;;;4.05;2.65;;;;;;;16.69;51.56;99676.88;4972374;28;20035;-64
2023/04/06 06:37:32;;;;;;;3.60;2.30;;;;;;;16.72;51.73;99687.31;4971485;28;20105;-64
2023/04/06 06:39:57;;;;;;;4.25;2.63;;;;;;;16.72;51.59;99689.94;4972480;28;20078;-64
2023/04/06 06:42:23;;;;;;;3.70;2.33;;;;;;;16.72;51.30;99692.59;4972503;28;20030;-64
2023/04/06 06:44:48;;;;;;;3.90;2.58;;;;;;;16.72;51.27;99697.84;4972355;28;20031;-64
2023/04/06 06:47:14;;;;;;;3.45;2.30;;;;;;;16.69;51.56;99696.19;4975250;28;20037;-64
2023/04/06 06:49:40;;;;;;;4.78;3.00;;;;;;;16.71;51.47;99688.25;4976136;28;20027;-64
2023/04/06 06:52:05;;;;;;;4.18;2.83;;;;;;;16.70;51.33;99697.06;4976263;28;20027;-64
2023/04/06 06:54:31;;;;;;;5.80;3.28;;;;;;;16.70;51.48;99694.44;4976082;28;20033;-63
2023/04/06 06:56:56;;;;;;;6.13;3.30;;;;;;;16.69;51.41;99696.19;4974690;28;20034;-64
2023/04/06 06:59:21;;;;;;;4.20;2.70;;;;;;;16.69;51.43;99695.31;4975858;28;20027;-64
2023/04/06 07:01:47;;;;;;;4.22;2.42;;;;;;;16.67;51.42;99694.53;4975282;28;20026;-64
2023/04/06 07:04:12;;;;;;;5.32;2.78;;;;;;;16.69;51.50;99698.81;4975735;28;20039;-64
2023/04/06 07:06:38;;;;;;;5.78;3.17;;;;;;;16.68;51.42;99701.53;4976051;28;20114;-64
2023/04/06 07:09:03;;;;;;;4.60;2.58;;;;;;;16.67;51.28;99705.06;4974534;28;20071;-64
2023/04/06 07:11:30;;;;;;;6.15;2.80;;;;;;;16.67;51.61;99707.72;4975565;28;20030;-64
2023/04/06 07:13:56;;;;;;;9.07;3.63;;;;;;;16.69;51.22;99708.50;4975659;28;20022;-64
2023/04/06 07:16:21;;;;;;;3.95;2.30;;;;;;;16.67;51.34;99699.81;4975189;28;20046;-64
2023/04/06 07:18:46;;;;;;;4.97;2.80;;;;;;;16.67;51.47;99708.59;4975688;28;20058;-64
2023/04/06 07:21:12;;;;;;;6.22;3.00;;;;;;;16.62;51.41;99708.75;4975464;28;20033;-64
2023/04/06 07:23:38;;;;;;;5.05;3.10;;;;;;;16.64;51.39;99714.81;4975399;28;20036;-64
2023/04/06 07:26:04;;;;;;;3.75;2.45;;;;;;;16.63;51.44;99713.13;4975574;28;20089;-64
2023/04/06 07:28:29;;;;;;;3.97;2.72;;;;;;;16.61;51.30;99720.19;4975307;28;20027;-64
2023/04/06 07:30:55;;;;;;;4.88;3.03;;;;;;;16.60;51.68;99723.75;4975152;28;20038;-63
2023/04/06 07:33:20;;;;;;;5.60;2.88;;;;;;;16.60;51.31;99731.66;4975383;28;20031;-64
2023/04/06 07:35:46;;;;;;;5.47;2.70;;;;;;;16.62;51.52;99739.50;4975440;28;20122;-64
2023/04/06 07:38:11;;;;;;;4.90;2.60;;;;;;;16.63;51.31;99741.22;4975051;28;20034;-64
2023/04/06 07:40:37;;;;;;;5.65;2.75;;;;;;;16.59;51.42;99745.75;4974953;28;20038;-64
2023/04/06 07:43:02;;;;;;;5.70;2.95;;;;;;;16.59;51.27;99745.75;4957486;28;20027;-65
2023/04/06 07:45:28;;;;;;;4.60;2.75;;;;;;;16.60;51.27;99747.47;4975051;28;20031;-64
2023/04/06 07:47:53;;;;;;;5.53;2.65;;;;;;;16.61;51.46;99748.34;4974897;28;20033;-63
2023/04/06 07:50:19;;;;;;;5.93;3.25;;;;;;;16.59;51.41;99751.03;4974761;28;20026;-63
2023/04/06 07:52:45;;;;;;;5.75;3.00;;;;;;;16.60;51.20;99755.38;4975219;28;20034;-64
2023/04/06 07:55:10;;;;;;;4.47;2.75;;;;;;;16.60;51.22;99751.88;4974882;28;20166;-64
2023/04/06 07:57:36;;;;;;;4.72;2.72;;;;;;;16.62;51.45;99747.41;4974160;28;20026;-64
2023/04/06 08:00:03;;;;;;;5.38;2.60;;;;;;;16.63;51.37;99754.41;4974635;28;20033;-63
2023/04/06 08:02:28;;;;;;;5.38;2.90;;;;;;;16.61;51.15;99757.09;4974803;28;20041;-64
2023/04/06 08:04:54;;;;;;;5.22;2.90;;;;;;;16.63;51.45;99752.63;4974985;28;20022;-64
2023/04/06 08:07:19;;;;;;;5.50;2.60;;;;;;;16.61;51.47;99749.19;4975517;28;20033;-64
2023/04/06 08:09:45;;;;;;;5.32;2.72;;;;;;;16.62;51.10;99750.06;4974320;28;20034;-64
2023/04/06 08:12:10;;;;;;;4.90;2.63;;;;;;;16.66;51.31;99748.16;4974674;28;20378;-65
2023/04/06 08:14:36;;;;;;;5.57;2.78;;;;;;;16.62;51.42;99744.78;4974911;28;20018;-64
2023/04/06 08:17:01;;;;;;;5.80;2.80;;;;;;;16.63;51.10;99752.63;4974983;28;20053;-64
2023/04/06 08:19:27;;;;;;;5.40;2.88;;;;;;;16.62;51.20;99756.16;4974480;28;20031;-64
2023/04/06 08:21:52;;;;;;;4.07;2.80;;;;;;;16.64;51.29;99751.72;4974367;28;20027;-64
2023/04/06 08:24:17;;;;;;;4.00;2.58;;;;;;;16.62;51.11;99769.34;4974556;28;20399;-64
2023/04/06 08:26:43;;;;;;;5.85;3.17;;;;;;;16.65;51.13;99765.72;4974273;28;20033;-64
2023/04/06 08:29:08;;;;;;;5.38;2.50;;;;;;;16.66;51.21;99761.34;4974056;28;20430;-64
2023/04/06 08:31:34;;;;;;;6.47;2.85;;;;;;;16.67;51.13;99768.31;4974376;28;20019;-63
2023/04/06 08:34:01;;;;;;;6.60;3.10;;;;;;;16.66;51.40;99764.81;4974233;28;20138;-63
2023/04/06 08:36:26;;;;;;;6.00;3.25;;;;;;;16.67;51.16;99778.84;4974038;28;20026;-64
2023/04/06 08:38:52;;;;;;;5.00;3.25;;;;;;;16.68;51.27;99772.66;4973940;28;20383;-64
2023/04/06 08:41:17;;;;;;;4.10;2.40;;;;;;;16.69;51.33;99783.16;4973681;28;20507;-63
2023/04/06 08:43:48;;;;;;;5.15;3.10;;;;;;;16.69;51.40;99782.28;4963020;28;20026;-64
2023/04/06 08:46:14;;;;;;;5.88;2.97;;;;;;;16.68;51.12;99772.66;4974066;28;20029;-64
2023/04/06 08:48:42;;;;;;;5.03;2.97;;;;;;;16.69;51.17;99782.28;4974085;28;20019;-64
2023/04/06 08:51:11;;;;;;;5.78;3.03;;;;;;;16.69;51.14;99788.41;4973842;28;20106;-64
2023/04/06 08:53:37;;;;;;;4.95;2.95;;;;;;;16.70;51.05;99790.13;4973862;28;20339;-64
2023/04/06 08:56:05;;;;;;;5.13;2.80;;;;;;;16.71;51.27;99791.00;4973609;28;20070;-64
2023/04/06 08:58:39;;;;;;;4.72;2.85;;;;;;;16.73;51.04;99795.31;4956480;28;20097;-64
2023/04/06 09:01:11;;;;;;;5.18;2.92;;;;;;;16.72;51.46;99798.00;4973550;28;20030;-64
2023/04/06 09:03:41;;;;;;;4.97;2.63;;;;;;;16.75;51.15;99797.84;4973693;28;20022;-64
2023/04/06 09:06:08;;;;;;;4.07;2.60;;;;;;;16.73;51.05;99799.69;4973547;28;20031;-64
2023/04/06 09:08:41;;;;;;;4.35;3.00;;;;;;;16.74;51.00;99796.16;4964129;28;20031;-64
2023/04/06 09:11:07;;;;;;;5.45;3.10;;;;;;;16.74;50.95;99806.69;4973384;28;20106;-64
2023/04/06 09:13:45;;;;;;;5.20;2.95;;;;;;;16.75;51.01;99803.13;4973542;28;20102;-64
2023/04/06 09:16:11;;;;;;;5.93;2.95;;;;;;;16.77;51.19;99807.44;4973710;28;20118;-64
2023/04/06 09:18:36;;;;;;;4.43;2.78;;;;;;;16.76;50.85;99802.22;4973346;28;20491;-64
2023/04/06 09:21:04;;;;;;;4.70;2.75;;;;;;;16.78;51.28;99803.91;4972139;28;20023;-64
2023/04/06 09:23:30;;;;;;;4.93;3.28;;;;;;;16.78;51.28;99809.16;4973503;28;20029;-64
2023/04/06 09:26:09;;;;;;;4.10;2.60;;;;;;;16.80;51.06;99805.59;4973108;28;20057;-63
2023/04/06 09:28:52;;;;;;;5.43;2.92;;;;;;;16.79;51.13;99804.75;4973243;28;20027;-64
2023/04/06 09:31:25;;;;;;;3.85;2.22;;;;;;;16.81;51.09;99812.59;4973184;28;20042;-64
2023/04/06 09:33:54;;;;;;;4.63;2.97;;;;;;;16.81;51.07;99816.09;4973375;28;20038;-64
2023/04/06 09:36:29;;;;;;;3.90;2.53;;;;;;;16.82;51.09;99809.03;4973223;28;20033;-64
2023/04/06 09:39:02;;;;;;;4.47;2.67;;;;;;;16.83;51.17;99801.06;4973129;28;20081;-63
2023/04/06 09:41:30;;;;;;;4.80;2.72;;;;;;;16.84;51.28;99808.06;4973062;28;20098;-64
2023/04/06 09:44:23;;;;;;;5.18;2.88;;;;;;;16.84;50.95;99804.56;4973101;28;20094;-64
2023/04/06 09:46:49;;;;;;;4.55;2.60;;;;;;;16.85;51.20;99798.41;4970130;28;20041;-64
2023/04/06 09:49:15;;;;;;;4.88;2.53;;;;;;;16.85;51.00;99799.22;4973156;28;20110;-63
2023/04/06 09:51:55;;;;;;;3.78;2.40;;;;;;;16.88;50.96;99796.50;4972989;28;20457;-64
2023/04/06 09:54:22;;;;;;;4.82;2.38;;;;;;;16.90;51.04;99804.31;4972650;28;20033;-64
2023/04/06 09:56:51;;;;;;;4.72;2.90;;;;;;;16.89;51.01;99800.84;4973146;28;20110;-64
2023/04/06 09:59:51;;;;;;;4.90;2.67;;;;;;;16.92;50.78;99803.34;4971720;28;20031;-63
2023/04/06 10:02:37;;;;;;;4.15;2.47;;;;;;;16.92;51.17;99803.34;4943881;29;20042;-63
2023/04/06 10:05:36;;;;;;;4.68;2.67;;;;;;;16.92;51.02;99805.13;4953786;29;20031;-64
2023/04/06 10:08:08;;;;;;;4.50;2.50;;;;;;;16.95;50.86;99804.16;4936898;29;20039;-63
2023/04/06 10:10:34;;;;;;;4.22;2.70;;;;;;;16.97;51.15;99802.31;4958223;28;20113;-63
2023/04/06 10:12:59;;;;;;;4.35;2.58;;;;;;;16.97;51.09;99803.19;4972489;28;20081;-64
2023/04/06 10:15:27;;;;;;;5.13;3.10;;;;;;;16.97;51.01;99802.31;4972752;28;20037;-63
2023/04/06 10:17:52;;;;;;;6.63;3.20;;;;;;;16.99;51.13;99805.75;4972897;28;20042;-64
2023/04/06 10:20:27;;;;;;;4.30;2.50;;;;;;;16.99;50.85;99806.63;4974026;28;20019;-64
2023/04/06 10:23:06;;;;;;;4.18;2.40;;;;;;;17.00;51.06;99810.13;4975823;28;20034;-63
2023/04/06 10:25:34;;;;;;;4.22;2.60;;;;;;;16.99;51.24;99811.88;4976565;28;20173;-62
2023/04/06 10:28:11;;;;;;;6.80;2.60;;;;;;;17.03;51.23;99810.03;4976473;28;20097;-64
2023/04/06 10:30:42;;;;;;;4.00;2.30;;;;;;;17.06;51.01;99816.94;4976435;28;20037;-64
2023/04/06 10:33:18;;;;;;;5.47;2.83;;;;;;;17.08;51.02;99818.63;4975221;28;20027;-64
2023/04/06 10:35:44;;;;;;;4.55;2.78;;;;;;;17.12;51.13;99806.16;4976277;28;20420;-63
2023/04/06 10:38:11;;;;;;;3.83;2.50;;;;;;;17.13;50.87;99803.47;4977109;28;20393;-64
2023/04/06 10:40:38;;;;;;;5.03;2.58;;;;;;;17.13;50.66;99807.88;4990742;28;20806;-64
2023/04/06 10:43:08;;;;;;;3.80;2.40;;;;;;;17.15;50.85;99806.91;4975997;28;20110;-63
2023/04/06 10:45:35;;;;;;;4.47;2.85;;;;;;;17.14;50.63;99794.63;4976192;28;20030;-64
2023/04/06 10:48:01;;;;;;;4.82;2.70;;;;;;;17.17;50.87;99798.94;4976316;28;20027;-63
2023/04/06 10:50:29;;;;;;;4.00;2.60;;;;;;;17.20;50.81;99798.81;4961776;28;20032;-63
2023/04/06 10:53:00;;;;;;;4.75;3.05;;;;;;;17.22;51.02;99796.97;4995195;28;20033;-64
2023/04/06 10:55:28;;;;;;;4.85;2.90;;;;;;;17.23;50.86;99788.13;4995431;28;20030;-64
2023/04/06 10:57:53;;;;;;;4.00;2.50;;;;;;;17.25;50.81;99796.00;4995478;28;20019;-63
2023/04/06 11:00:20;;;;;;;3.83;2.30;;;;;;;17.25;51.03;99793.38;4993216;28;20033;-63
2023/04/06 11:02:46;;;;;;;4.05;2.55;;;;;;;17.25;50.87;99791.56;4975834;28;20210;-63
2023/04/06 11:05:13;;;;;;;4.78;2.60;;;;;;;17.27;50.82;99788.88;4975783;28;20569;-63
2023/04/06 11:07:39;;;;;;;5.60;2.95;;;;;;;17.27;50.92;99787.09;4975582;28;20107;-64
2023/04/06 11:10:06;;;;;;;4.28;2.58;;;;;;;17.30;50.69;99788.75;4975681;28;20074;-65
2023/04/06 11:12:31;;;;;;;4.20;2.60;;;;;;;17.32;50.64;99781.63;4995060;28;20037;-63
2023/04/06 11:15:05;;;;;;;4.65;2.75;;;;;;;17.32;51.05;99776.34;4995205;28;20030;-63
2023/04/06 11:17:38;;;;;;;3.70;2.53;;;;;;;17.34;50.68;99779.78;4995307;28;20069;-63
2023/04/06 11:20:09;;;;;;;4.40;2.65;;;;;;;17.37;50.67;99774.41;4994991;28;20077;-63
2023/04/06 11:22:35;;;;;;;3.45;2.40;;;;;;;17.37;50.60;99774.41;4955830;29;20031;-64
2023/04/06 11:25:07;;;;;;;4.18;2.33;;;;;;;17.39;50.86;99772.53;4956154;29;20031;-64
2023/04/06 11:27:34;;;;;;;4.45;2.40;;;;;;;17.40;50.99;99776.94;4956184;29;20027;-63
2023/04/06 11:30:01;;;;;;;4.20;2.35;;;;;;;17.42;50.72;99776.84;4956207;29;20450;-64
2023/04/06 11:32:26;;;;;;;4.32;2.40;;;;;;;17.42;50.76;99772.44;4992374;28;20053;-64